Time;durP1;ratioP1;P1;durP2;ratioP2;P2;SDS_P1;SDS_P2;PMS_P1;PMS_P2;Temp;Humidity;BMP_temperature;BMP_pressure;BME280_temperature;BME280_humidity;BME280_pressure;Samples;Min_cycle;Max_cycle;Signal;HPM_P1;HPM_P2
2021/08/19 00:00:37;;;;;;;6.00;3.20;;;;;;;15.06;62.14;98349.20;513006;1092;103111;-42
2021/08/19 00:10:45;;;;;;;7.77;3.93;;;;;;;15.22;62.37;98353.48;512748;1092;103105;-41
2021/08/19 00:20:53;;;;;;;6.87;3.77;;;;;;;15.25;62.57;98354.80;512660;1092;103127;-41
2021/08/19 00:31:01;;;;;;;5.87;3.53;;;;;;;15.08;62.68;98352.39;512745;1092;103124;-42
2021/08/19 00:41:09;;;;;;;4.30;3.30;;;;;;;14.90;63.08;98350.23;512767;1091;103419;-42
2021/08/19 00:51:16;;;;;;;7.33;3.93;;;;;;;14.74;63.32;98350.23;513008;1092;103106;-42
2021/08/19 01:01:25;;;;;;;6.35;3.05;;;;;;;14.56;63.46;98358.69;512935;1091;103112;-42
2021/08/19 01:11:34;;;;;;;10.23;4.97;;;;;;;14.58;64.24;98353.91;512780;1092;103108;-42
2021/08/19 01:21:42;;;;;;;7.30;3.95;;;;;;;14.43;64.45;98353.84;512758;1092;103127;-43
2021/08/19 01:42:03;;;;;;;6.23;3.33;;;;;;;14.73;64.88;98351.29;513688;1090;103502;-43
2021/08/19 01:52:11;;;;;;;8.90;5.43;;;;;;;14.60;65.22;98354.44;512914;1088;103167;-42
2021/08/19 02:02:19;;;;;;;8.87;4.83;;;;;;;14.43;65.36;98353.84;513107;1088;103089;-42
2021/08/19 02:12:27;;;;;;;5.63;4.93;;;;;;;14.38;65.73;98340.50;512712;1088;103102;-42
2021/08/19 02:22:34;;;;;;;8.15;4.20;;;;;;;14.26;65.65;98342.60;512766;1088;103201;-43
2021/08/19 02:32:41;;;;;;;6.87;4.60;;;;;;;14.35;66.33;98341.83;513115;1088;103101;-42
2021/08/19 02:42:49;;;;;;;7.20;5.53;;;;;;;14.25;66.39;98330.36;512805;1089;103118;-43
2021/08/19 02:52:58;;;;;;;6.38;4.83;;;;;;;14.29;66.65;98326.13;512703;1088;103070;-43
2021/08/19 03:03:06;;;;;;;7.05;4.10;;;;;;;14.41;66.86;98321.36;512718;1090;103143;-44
2021/08/19 03:13:14;;;;;;;5.30;4.80;;;;;;;14.61;68.09;98326.77;512951;1088;103171;-43
2021/08/19 03:23:23;;;;;;;6.00;5.05;;;;;;;14.67;67.19;98328.40;512920;1088;103122;-43
2021/08/19 03:33:31;;;;;;;5.63;4.57;;;;;;;14.71;67.18;98323.34;512849;1089;103469;-42
2021/08/19 03:43:39;;;;;;;6.15;4.95;;;;;;;14.74;67.36;98323.61;512990;1089;103280;-42
2021/08/19 04:03:55;;;;;;;6.55;5.40;;;;;;;14.86;67.71;98330.53;512718;1088;103178;-42
2021/08/19 04:14:02;;;;;;;6.17;4.90;;;;;;;15.02;67.53;98335.62;512991;1088;103057;-42
2021/08/19 04:24:10;;;;;;;8.27;5.07;;;;;;;15.15;67.78;98333.51;512955;1088;103074;-43
2021/08/19 04:34:18;;;;;;;8.90;6.43;;;;;;;15.18;67.68;98341.77;513028;1089;103460;-43
2021/08/19 04:44:26;;;;;;;7.73;5.60;;;;;;;15.29;67.71;98338.02;513011;1088;103092;-42
2021/08/19 04:54:34;;;;;;;9.13;5.83;;;;;;;15.50;67.58;98325.48;512994;1089;103183;-42
2021/08/19 05:04:40;;;;;;;10.90;5.87;;;;;;;16.39;68.20;98331.91;512939;1089;103498;-41
2021/08/19 05:14:48;;;;;;;7.23;5.90;;;;;;;18.45;66.86;98328.77;513305;1089;103128;-42
2021/08/19 05:24:56;;;;;;;7.48;4.88;;;;;;;19.83;65.90;98319.40;513049;1088;103116;-42
2021/08/19 05:35:04;;;;;;;7.63;5.45;;;;;;;20.22;63.50;98321.59;513152;1088;103101;-41
2021/08/19 05:55:19;;;;;;;6.87;6.03;;;;;;;19.80;63.01;98336.09;513040;1088;103115;-42
2021/08/19 06:05:26;;;;;;;9.17;5.77;;;;;;;19.42;62.87;98335.42;512995;1089;103120;-42
2021/08/19 06:15:34;;;;;;;5.87;5.27;;;;;;;19.84;63.03;98326.35;513095;1090;103113;-41
2021/08/19 06:25:41;;;;;;;;;;;;;;;20.44;62.07;98324.38;513045;1089;103094;-39
2021/08/19 06:35:47;;;;;;;9.70;5.80;;;;;;;21.49;61.72;98323.30;512792;1089;105006;-41
2021/08/19 06:45:55;;;;;;;8.35;5.50;;;;;;;21.60;60.33;98330.81;513470;1089;103105;-41
2021/08/19 06:56:03;;;;;;;8.63;5.07;;;;;;;21.72;60.42;98325.64;512779;1089;103529;-43
2021/08/19 07:06:11;;;;;;;6.83;6.13;;;;;;;22.13;59.63;98319.18;513178;1089;103145;-42
2021/08/19 07:16:18;;;;;;;6.10;5.60;;;;;;;21.44;59.10;98316.16;513025;1089;103064;-42
2021/08/19 07:26:27;;;;;;;6.17;5.57;;;;;;;20.52;59.25;98320.17;513026;1089;103123;-41
2021/08/19 07:36:33;;;;;;;;;;;;;;;19.81;59.97;98333.11;512945;1089;103101;-41
2021/08/19 07:46:41;;;;;;;7.37;5.97;;;;;;;19.77;60.80;98325.95;512911;1089;103102;-41
2021/08/19 07:56:49;;;;;;;7.37;5.30;;;;;;;20.38;60.56;98319.39;512748;1088;103118;-40
2021/08/19 08:06:57;;;;;;;6.65;5.80;;;;;;;20.68;60.53;98320.65;512732;1088;103559;-41
2021/08/19 08:17:06;;;;;;;11.25;7.00;;;;;;;20.57;60.31;98328.12;512881;1088;103415;-41
2021/08/19 08:27:14;;;;;;;6.87;6.17;;;;;;;20.71;60.20;98328.89;512788;1088;103702;-40
2021/08/19 08:47:32;;;;;;;6.80;6.07;;;;;;;22.31;59.34;98334.29;512807;1088;103102;-42
2021/08/19 08:57:40;;;;;;;7.57;5.70;;;;;;;22.95;58.79;98342.64;512927;1090;103101;-42
2021/08/19 09:07:55;;;;;;;8.53;5.47;;;;;;;23.23;58.17;98339.61;512770;1089;103442;-42
2021/08/19 09:18:03;;;;;;;5.70;4.70;;;;;;;23.03;56.50;98335.66;512867;1089;103099;-40
2021/08/19 09:28:25;;;;;;;5.17;4.30;;;;;;;24.04;56.70;98317.16;512886;1088;103456;-41
2021/08/19 09:38:38;;;;;;;5.20;4.67;;;;;;;24.08;55.71;98326.97;513041;1089;103202;-43
2021/08/19 09:48:46;;;;;;;6.37;4.80;;;;;;;23.27;55.09;98332.45;513163;1088;103294;-42
2021/08/19 09:58:54;;;;;;;4.90;4.50;;;;;;;22.91;55.29;98343.57;512975;1089;103501;-41
2021/08/19 10:09:03;;;;;;;5.57;5.17;;;;;;;22.80;55.31;98342.28;512916;1089;103142;-42
2021/08/19 10:19:13;;;;;;;4.98;4.58;;;;;;;22.96;55.61;98336.14;512779;1089;103470;-42
2021/08/19 10:39:53;;;;;;;4.80;4.50;;;;;;;23.36;55.17;98335.92;512966;1089;103261;-42
2021/08/19 10:50:22;;;;;;;4.90;4.50;;;;;;;24.18;54.08;98334.73;512753;1089;103142;-42
2021/08/19 11:00:41;;;;;;;5.43;5.03;;;;;;;23.82;53.83;98329.79;512928;1089;103399;-40
2021/08/19 11:10:54;;;;;;;5.60;5.10;;;;;;;23.78;53.77;98328.86;513187;1089;103591;-42
2021/08/19 11:21:03;;;;;;;4.93;4.10;;;;;;;23.33;52.88;98327.68;512967;1089;103166;-42
2021/08/19 11:31:15;;;;;;;4.10;3.75;;;;;;;23.08;53.14;98337.39;512910;1089;103124;-42
2021/08/19 11:41:23;;;;;;;6.83;4.37;;;;;;;22.71;53.25;98341.47;513042;1089;103115;-42
2021/08/19 11:51:29;;;;;;;8.40;3.98;;;;;;;22.44;53.05;98334.45;512808;1088;103485;-42
2021/08/19 12:01:38;;;;;;;8.20;4.17;;;;;;;22.92;53.14;98340.55;512815;1088;103153;-41
2021/08/19 12:11:48;;;;;;;3.00;2.80;;;;;;;23.21;51.60;98336.44;512868;1088;103176;-39
2021/08/19 12:21:57;;;;;;;3.23;2.97;;;;;;;23.47;50.14;98323.69;512960;1090;103505;-40
2021/08/19 12:32:05;;;;;;;4.93;3.27;;;;;;;23.51;49.61;98331.94;513013;1089;103103;-42
2021/08/19 12:42:15;;;;;;;3.00;2.80;;;;;;;23.19;49.93;98344.06;512887;1089;103457;-42
2021/08/19 12:52:27;;;;;;;2.90;2.70;;;;;;;23.08;50.22;98348.97;512886;1089;103135;-41
2021/08/19 13:02:35;;;;;;;3.80;3.50;;;;;;;22.88;50.25;98350.39;512724;1089;103185;-41
2021/08/19 13:12:44;;;;;;;4.57;3.20;;;;;;;22.16;49.98;98358.95;512987;1088;103476;-41
2021/08/19 13:33:01;;;;;;;8.00;4.03;;;;;;;21.51;51.75;98348.00;513085;1088;103120;-41
2021/08/19 13:43:07;;;;;;;;;;;;;;;21.64;52.39;98353.31;512850;1089;103116;-41
2021/08/19 13:53:15;;;;;;;4.33;3.93;;;;;;;22.13;52.21;98358.78;512714;1088;103164;-41
2021/08/19 14:03:22;;;;;;;7.60;4.63;;;;;;;22.66;52.05;98348.60;513208;1089;103116;-42
2021/08/19 14:13:30;;;;;;;4.58;4.25;;;;;;;22.36;51.37;98350.30;512818;1088;103074;-40
2021/08/19 14:23:40;;;;;;;5.67;4.00;;;;;;;21.90;51.65;98366.89;513026;1088;103376;-43
2021/08/19 14:33:47;;;;;;;7.95;4.05;;;;;;;21.68;52.14;98369.63;512908;1089;103119;-42
2021/08/19 14:43:53;;;;;;;;;;;;;;;21.37;52.38;98377.67;512841;1090;103059;-41
2021/08/19 14:54:01;;;;;;;4.43;4.00;;;;;;;21.19;52.86;98381.30;512842;1089;103124;-41
2021/08/19 15:04:10;;;;;;;4.65;3.73;;;;;;;21.28;53.62;98377.59;512783;1089;103118;-41
2021/08/19 15:14:18;;;;;;;5.73;3.90;;;;;;;21.47;53.57;98371.23;512910;1088;103400;-41
2021/08/19 15:24:25;;;;;;;3.45;3.15;;;;;;;21.61;53.73;98378.14;512916;1089;103502;-41
2021/08/19 15:34:32;;;;;;;4.70;4.30;;;;;;;21.59;54.18;98376.87;512901;1089;103279;-42
2021/08/19 15:44:41;;;;;;;5.75;3.85;;;;;;;21.39;54.04;98383.54;512669;1088;103118;-40
2021/08/19 15:54:50;;;;;;;6.83;5.37;;;;;;;21.46;54.18;98389.27;512747;1089;103522;-41
2021/08/19 16:04:58;;;;;;;5.53;4.70;;;;;;;21.41;54.41;98397.47;512966;1089;103518;-42
2021/08/19 16:15:04;;;;;;;;;;;;;;;21.20;54.69;98394.44;512731;1089;103504;-41
2021/08/19 16:35:17;;;;;;;8.40;5.70;;;;;;;20.95;55.36;98398.50;512978;1089;103345;-40
2021/08/19 16:45:24;;;;;;;8.40;5.48;;;;;;;20.73;55.57;98418.05;512845;1089;103116;-41
2021/08/19 16:55:33;;;;;;;6.95;5.85;;;;;;;20.54;55.75;98425.42;513040;1088;103156;-40
2021/08/19 17:05:41;;;;;;;6.07;5.53;;;;;;;20.42;56.11;98417.88;512781;1089;103178;-42
2021/08/19 17:15:49;;;;;;;7.23;5.40;;;;;;;20.32;56.09;98418.03;512838;1089;103198;-41
2021/08/19 17:25:58;;;;;;;8.27;5.40;;;;;;;20.22;56.80;98418.23;512989;1090;103125;-41
2021/08/19 17:36:06;;;;;;;5.10;4.60;;;;;;;19.99;56.47;98427.26;512814;1089;103152;-41
2021/08/19 17:46:14;;;;;;;9.73;5.67;;;;;;;19.85;56.63;98430.70;513086;1088;103112;-42
2021/08/19 17:56:22;;;;;;;4.87;4.20;;;;;;;19.76;57.02;98437.84;512723;1089;103463;-43
2021/08/19 18:06:30;;;;;;;7.65;4.73;;;;;;;19.69;57.52;98442.80;512872;1089;103143;-42
2021/08/19 18:16:36;;;;;;;9.93;6.03;;;;;;;19.55;57.52;98442.73;512877;1089;103135;-42
2021/08/19 18:26:44;;;;;;;9.47;5.33;;;;;;;19.40;57.81;98445.64;512816;1089;103506;-42
2021/08/19 18:36:53;;;;;;;5.97;5.37;;;;;;;19.24;58.29;98455.78;512758;1089;103473;-43
2021/08/19 18:47:00;;;;;;;10.87;6.30;;;;;;;19.11;58.60;98459.17;512904;1090;103159;-41
2021/08/19 18:57:09;;;;;;;7.77;6.30;;;;;;;19.00;58.85;98458.53;512916;1089;103412;-42
2021/08/19 19:07:15;;;;;;;;;;;;;;;18.96;59.49;98475.47;513235;1089;103460;-42
2021/08/19 19:17:23;;;;;;;10.30;6.90;;;;;;;18.89;60.21;98485.72;512941;1088;103137;-43
2021/08/19 19:27:31;;;;;;;11.10;7.93;;;;;;;18.81;60.14;98491.73;512649;1089;103131;-40
2021/08/19 19:37:39;;;;;;;10.88;7.60;;;;;;;18.66;60.34;98498.05;512899;1088;103118;-43
2021/08/19 19:47:47;;;;;;;11.90;6.73;;;;;;;18.58;60.84;98502.13;512872;1090;103416;-41
2021/08/19 19:57:55;;;;;;;7.65;5.75;;;;;;;18.64;60.57;98503.69;512980;1089;103141;-42
2021/08/19 20:08:02;;;;;;;9.18;7.30;;;;;;;18.73;60.76;98500.41;512740;1089;103161;-43
2021/08/19 20:18:10;;;;;;;9.55;8.15;;;;;;;18.59;60.66;98500.25;512742;1089;103121;-42
2021/08/19 20:38:25;;;;;;;16.07;12.80;;;;;;;18.32;61.42;98504.27;512912;1088;103146;-42
2021/08/19 20:48:33;;;;;;;16.35;10.55;;;;;;;18.38;61.88;98516.52;512890;1090;103485;-42
2021/08/19 20:58:41;;;;;;;16.03;9.97;;;;;;;18.36;61.57;98524.03;512774;1088;103156;-42
2021/08/19 21:08:48;;;;;;;12.55;9.00;;;;;;;18.30;62.43;98530.53;512987;1088;103116;-42
2021/08/19 21:18:56;;;;;;;12.63;8.38;;;;;;;18.20;62.65;98538.63;512820;1089;103150;-42
2021/08/19 21:29:04;;;;;;;12.00;7.65;;;;;;;18.05;62.46;98544.93;512855;1088;103521;-42
2021/08/19 21:39:12;;;;;;;13.47;6.10;;;;;;;17.98;62.78;98532.93;512759;1089;103118;-42
2021/08/19 21:49:20;;;;;;;8.07;6.03;;;;;;;18.05;62.82;98536.11;512762;1090;103486;-40
2021/08/19 21:59:28;;;;;;;5.85;5.23;;;;;;;18.02;63.06;98536.67;512918;1089;103504;-41
2021/08/19 22:09:36;;;;;;;8.60;6.25;;;;;;;17.88;63.07;98546.40;512696;1089;103101;-42
2021/08/19 22:19:42;;;;;;;6.17;5.57;;;;;;;17.79;63.40;98555.02;512764;1089;103464;-43
2021/08/19 22:29:49;;;;;;;8.23;5.43;;;;;;;17.83;63.35;98549.12;512726;1089;103427;-42
2021/08/19 22:39:58;;;;;;;7.23;5.10;;;;;;;17.91;63.91;98556.53;512828;1088;103523;-42
2021/08/19 22:50:06;;;;;;;11.35;6.50;;;;;;;17.89;64.29;98556.81;512933;1088;103508;-44
2021/08/19 23:00:16;;;;;;;9.03;5.90;;;;;;;17.78;64.07;98564.13;513025;1089;103106;-42
2021/08/19 23:10:24;;;;;;;8.73;5.53;;;;;;;17.64;64.70;98563.11;512835;1089;103128;-41
2021/08/19 23:20:32;;;;;;;8.13;5.13;;;;;;;17.58;65.46;98566.09;512803;1089;103098;-42
2021/08/19 23:30:40;;;;;;;6.30;5.05;;;;;;;17.54;65.39;98565.05;512701;1088;103456;-43
2021/08/19 23:40:48;;;;;;;7.35;5.10;;;;;;;17.31;65.45;98563.84;512794;1089;103100;-42
2021/08/19 23:50:56;;;;;;;7.33;4.60;;;;;;;17.30;66.14;98589.77;513009;1088;103169;-42
